Latest Coastal Weather Observations for Bundaberg

IDQ60701

Issued at 11:22 am EST Sunday 14 April 2024 (issued every 10 minutes, with the page automatically refreshed every 10 minutes)

About coastal observations | Map of coastal stations | Coastal observations for QLD | Marine services | Other Formats
Station Details ID: 039128 Name: BUNDABERG AERO Lat: -24.91 Lon: 152.32 Height: 30.82 m
Data from the previous 72 hours. | See also: Recent months at Bundaberg
Date/Time
EST
Wind Sea
Height
m
Swell Vis
km
Cloud Weather Temp
°C
Press
MSL
hPa
Rain since
9am
mm
Dir  Spd
kts
Gust
kts
Height
m
Period
s
Dir
14/11:00am ESE 12 17 - - - - 10 - - 26.3 1021.8 0.0
14/10:30am ESE 11 15 - - - - 10 - - 26.2 1022.0 0.0
14/10:00am ESE 10 14 - - - - 10 Partly cloudy - 25.4 1022.3 0.0
14/09:30am ESE 11 16 - - - - 10 - - 25.2 1022.4 0.0
14/09:00am SE 7 10 - - - - 10 Mostly clear - 23.9 1022.5 0.0
14/08:30am S 6 8 - - - - 10 Partly cloudy - 22.2 1022.5 0.0
14/08:00am S 6 8 - - - - 10 - - 20.5 1022.0 0.0
14/07:30am S 6 7 - - - - 10 - - 19.1 1021.8 0.0
14/07:00am SSW 7 9 - - - - 10 - - 17.8 1021.5 0.0
14/06:30am SSW 7 8 - - - - 10 - - 16.8 1021.3 0.0
14/06:00am S 6 7 - - - - 10 - - 16.4 1021.0 0.0
14/05:30am SSW 7 9 - - - - 10 - - 16.7 1020.7 0.0
14/05:00am SSW 7 9 - - - - 10 - - 17.0 1020.4 0.0
14/04:30am SSW 7 7 - - - - 10 - - 17.1 1020.3 0.0
14/04:00am SSW 6 7 - - - - 10 - - 16.8 1020.1 0.0
14/03:30am SSW 7 9 - - - - 10 - - 17.4 1020.1 0.0
14/03:00am SSW 7 9 - - - - 10 - - 17.4 1020.1 0.0
14/02:30am S 5 6 - - - - 10 - - 17.0 1020.1 0.0
14/02:00am SSW 6 7 - - - - 10 - - 17.4 1020.1 0.0
14/01:30am S 6 7 - - - - 10 - - 17.5 1020.2 0.0
14/01:00am S 6 8 - - - - 10 - - 17.9 1020.4 0.0
14/12:30am SSW 7 8 - - - - 10 - - 18.2 1020.9 0.0
14/12:00am SSW 7 8 - - - - 10 - - 18.4 1021.0 0.0
 
Date/Time
EST
Wind Sea
Height
m
Swell Vis
km
Cloud Weather Temp
°C
Press
MSL
hPa
Rain since
9am
mm
Dir  Spd
kts
Gust
kts
Height
m
Period
s
Dir
13/11:30pm S 5 7 - - - - 10 - - 18.5 1021.0 0.0
13/11:00pm S 6 8 - - - - 10 - - 18.9 1021.2 0.0
13/10:30pm SSE 5 6 - - - - 10 - - 19.2 1021.2 0.0
13/10:00pm S 5 5 - - - - 10 - - 19.1 1021.2 0.0
13/09:30pm SSE 5 7 - - - - 10 - - 19.6 1021.2 0.0
13/09:00pm SSE 6 8 - - - - 10 - - 20.1 1021.4 0.0
13/08:30pm SSE 5 6 - - - - 10 Partly cloudy - 20.5 1021.2 0.0
13/08:00pm SE 4 5 - - - - 10 - - 20.2 1020.9 0.0
13/07:30pm SE 5 6 - - - - 10 - - 20.5 1020.5 0.0
13/07:00pm SE 5 6 - - - - 10 Partly cloudy - 20.7 1020.2 0.0
13/06:30pm SE 6 7 - - - - 10 - - 21.4 1019.8 0.0
13/06:00pm ESE 7 8 - - - - 10 - - 22.1 1019.4 0.0
13/05:30pm ESE 9 12 - - - - 10 - - 23.6 1019.2 0.0
13/05:00pm ESE 11 14 - - - - 10 - - 24.7 1018.9 0.0
13/04:30pm E 12 15 - - - - 10 - - 25.3 1018.5 0.0
13/04:00pm ESE 14 18 - - - - 10 - - 26.0 1018.1 0.0
13/03:30pm ESE 15 18 - - - - 10 - - 26.3 1017.8 0.0
13/03:00pm E 12 17 - - - - 10 - - 27.0 1017.9 0.0
13/02:30pm ESE 13 18 - - - - 10 - - 27.2 1018.0 0.0
13/02:00pm ESE 13 18 - - - - 10 - - 27.0 1018.2 0.0
13/01:30pm ESE 13 18 - - - - 10 Partly cloudy - 27.6 1018.3 0.0
13/01:00pm E 14 18 - - - - 10 - - 26.8 1018.4 0.0
13/12:30pm ESE 13 17 - - - - 10 - - 27.1 1018.9 0.0
13/12:00pm ESE 12 16 - - - - 10 Mostly clear - 27.4 1019.4 0.0
13/11:30am E 11 16 - - - - 10 Partly cloudy - 26.9 1019.9 0.0
13/11:00am SE 11 15 - - - - 10 Partly cloudy - 25.1 1020.4 0.0
13/10:30am SE 11 17 - - - - 10 Partly cloudy - 26.6 1020.6 0.0
13/10:00am SE 9 15 - - - - 10 Partly cloudy - 25.8 1020.6 0.0
13/09:30am SSE 8 11 - - - - 10 - - 25.2 1020.7 0.0
13/09:00am S 6 11 - - - - 10 - - 23.9 1020.7 0.0
13/08:30am S 7 10 - - - - 10 - - 22.5 1020.5 0.0
13/08:00am S 6 8 - - - - 10 - - 21.1 1020.5 0.0
13/07:30am S 6 8 - - - - 10 Partly cloudy - 19.4 1020.0 0.0
13/07:00am SSW 7 8 - - - - 10 - - 18.2 1019.6 0.0
13/06:30am SSW 6 7 - - - - 10 - - 17.4 1019.3 0.0
13/06:00am SSW 6 7 - - - - 10 - - 17.3 1019.1 0.0
13/05:30am SSW 6 9 - - - - 10 - - 17.5 1019.0 0.0
13/05:00am SSW 7 9 - - - - 10 Partly cloudy - 17.7 1018.8 0.0
13/04:30am SSW 7 8 - - - - 10 - - 17.6 1018.6 0.0
13/04:00am SSW 6 8 - - - - 10 - - 17.7 1018.3 0.0
13/03:30am SSW 6 8 - - - - 10 - - 17.7 1018.1 0.0
13/03:00am SSW 6 8 - - - - 10 - - 17.8 1018.1 0.0
13/02:30am SSW 7 9 - - - - 10 - - 17.8 1018.0 0.0
13/02:00am SSW 7 9 - - - - 10 - - 17.9 1018.1 0.0
13/01:30am SSW 7 9 - - - - 10 - - 18.1 1018.2 0.0
13/01:00am SSW 7 8 - - - - 10 - - 18.1 1018.2 0.0
13/12:30am SSW 6 7 - - - - 10 - - 18.0 1018.5 0.0
13/12:00am SSW 6 7 - - - - 10 - - 18.3 1018.7 0.0
 
Date/Time
EST
Wind Sea
Height
m
Swell Vis
km
Cloud Weather Temp
°C
Press
MSL
hPa
Rain since
9am
mm
Dir  Spd
kts
Gust
kts
Height
m
Period
s
Dir
12/11:30pm S 6 7 - - - - 10 - - 18.5 1018.9 0.0
12/11:00pm S 5 7 - - - - 10 - - 18.6 1019.0 0.0
12/10:30pm S 6 7 - - - - 10 - - 19.0 1019.1 0.0
12/10:00pm S 6 8 - - - - 10 - - 19.0 1019.1 0.0
12/09:30pm S 6 9 - - - - 10 - - 19.5 1018.9 0.0
12/09:00pm S 5 6 - - - - 10 - - 19.4 1019.1 0.0
12/08:30pm S 6 8 - - - - 10 - - 20.0 1019.2 0.0
12/08:00pm SSE 8 10 - - - - 10 - - 20.6 1018.5 0.0
12/07:30pm SE 5 7 - - - - 10 - - 20.2 1018.5 0.0
12/07:00pm SE 8 10 - - - - 10 - - 20.9 1018.1 0.0
12/06:30pm ESE 8 12 - - - - 10 - - 21.5 1017.8 0.0
12/06:00pm ESE 9 12 - - - - 10 - - 22.2 1017.4 0.0
12/05:30pm ESE 13 16 - - - - 10 - - 23.3 1017.0 0.0
12/05:00pm ESE 11 16 - - - - 10 - - 24.1 1016.6 0.0
12/04:30pm ESE 12 17 - - - - 10 - - 24.9 1016.2 0.0
12/04:00pm ESE 16 20 - - - - 10 - - 25.4 1015.9 0.0
12/03:30pm ESE 13 18 - - - - 10 Partly cloudy - 24.9 1015.8 0.0
12/03:00pm ESE 14 20 - - - - 10 - - 26.6 1015.7 0.0
12/02:30pm ESE 13 19 - - - - 10 Partly cloudy - 26.7 1015.9 0.0
12/02:00pm ESE 12 17 - - - - 10 Partly cloudy - 26.9 1015.9 0.0
12/01:30pm SE 11 16 - - - - 10 Partly cloudy - 27.3 1015.9 0.0
12/01:00pm ESE 13 16 - - - - 10 - - 27.0 1016.1 0.0
12/12:30pm SE 11 15 - - - - 10 Partly cloudy - 26.5 1016.5 0.0
12/12:00pm SSE 12 16 - - - - 10 Partly cloudy - 25.7 1017.0 0.0
12/11:30am SE 13 19 - - - - 10 Partly cloudy - 26.7 1017.6 0.0
12/11:00am SSE 13 18 - - - - 10 Partly cloudy - 25.3 1018.0 0.0
12/10:30am SE 14 19 - - - - 10 Partly cloudy - 26.3 1018.3 0.0
12/10:00am SSE 12 16 - - - - 10 - - 24.9 1018.5 0.0
12/09:30am SSE 10 14 - - - - 10 - - 24.2 1018.5 0.0
12/09:00am SSE 12 18 - - - - 10 - - 23.4 1018.3 0.0
12/08:30am SSE 8 15 - - - - 10 Partly cloudy - 22.4 1018.2 0.0
12/08:00am SSE 8 13 - - - - 10 Partly cloudy - 21.2 1018.1 0.0
12/07:30am S 7 10 - - - - 10 - - 19.1 1017.9 0.0
12/07:00am S 6 9 - - - - 10 - - 17.9 1017.6 0.0
12/06:30am SSW 5 7 - - - - 10 Partly cloudy - 17.2 1017.4 0.0
12/06:00am S 5 8 - - - - 10 Partly cloudy - 17.1 1017.1 0.0
12/05:30am SSW 6 8 - - - - 10 Partly cloudy - 17.1 1016.8 0.0
12/05:00am SSW 6 9 - - - - 10 - - 17.0 1016.4 0.0
12/04:30am SSW 6 9 - - - - 10 Partly cloudy - 17.2 1016.3 0.0
12/04:00am S 6 8 - - - - 10 - - 16.9 1016.1 0.0
12/03:30am SSW 6 7 - - - - 10 - - 17.0 1016.2 0.0
12/03:00am SSW 7 9 - - - - 10 Mostly clear - 17.4 1016.2 0.0
12/02:30am SSW 6 8 - - - - 10 - - 17.2 1016.2 0.0
12/02:00am S 6 9 - - - - 10 Partly cloudy - 17.0 1016.4 0.0
12/01:30am SSW 7 8 - - - - 10 - - 17.1 1016.6 0.0
12/01:00am SSW 7 8 - - - - 10 - - 17.1 1016.8 0.0
12/12:30am S 7 9 - - - - 10 - - 17.1 1017.1 0.0
12/12:00am S 8 9 - - - - 10 - - 17.3 1017.3 0.0
 
Date/Time
EST
Wind Sea
Height
m
Swell Vis
km
Cloud Weather Temp
°C
Press
MSL
hPa
Rain since
9am
mm
Dir  Spd
kts
Gust
kts
Height
m
Period
s
Dir
11/11:30pm S 8 10 - - - - 10 - - 18.0 1017.4 0.0
11/11:00pm S 7 9 - - - - 10 - - 18.4 1017.5 0.0
11/10:30pm S 7 8 - - - - 10 - - 18.9 1017.6 0.0
11/10:00pm SSE 7 8 - - - - 10 - - 19.0 1017.6 0.0
11/09:30pm SSE 7 9 - - - - 10 - - 19.0 1017.7 0.0
11/09:00pm SSE 7 8 - - - - 10 - - 19.2 1017.6 0.0
11/08:30pm SSE 6 7 - - - - 10 - - 19.1 1017.4 0.0
11/08:00pm SSE 6 8 - - - - 10 - - 19.7 1017.1 0.0
11/07:30pm SE 6 7 - - - - 10 - - 19.6 1016.8 0.0
11/07:00pm SE 5 7 - - - - 10 - - 20.6 1016.6 0.0
11/06:30pm ESE 7 8 - - - - 10 - - 20.8 1016.1 0.0
11/06:00pm ESE 7 9 - - - - 10 - - 21.8 1015.9 0.0
11/05:30pm ESE 9 11 - - - - 10 - - 23.0 1015.6 0.0
11/05:00pm ESE 10 12 - - - - 10 - - 24.3 1015.2 0.0
11/04:30pm ESE 11 13 - - - - 10 - - 25.1 1014.8 0.0
11/04:00pm ESE 10 13 - - - - 10 - - 25.9 1014.6 0.0
11/03:30pm ESE 9 12 - - - - 10 Partly cloudy - 26.3 1014.5 0.0
11/03:00pm ESE 9 13 - - - - 10 Partly cloudy - 26.1 1014.4 0.0
11/02:30pm ESE 8 13 - - - - 10 Partly cloudy - 25.7 1014.2 0.0
11/02:00pm ESE 9 13 - - - - 10 Partly cloudy - 26.9 1014.4 0.0
11/01:30pm SSE 5 9 - - - - 10 Partly cloudy - 25.4 1014.6 0.0
11/01:00pm SSE 7 14 - - - - 10 Partly cloudy - 25.9 1014.8 0.0
11/12:30pm E 10 13 - - - - 10 - - 26.6 1015.0 0.0
11/12:00pm ESE 9 13 - - - - 10 Partly cloudy - 25.2 1015.4 0.0
11/11:30am SE 8 13 - - - - 10 Partly cloudy - 25.9 1016.0 0.0

Other formats

Comma delimited format used in spreadsheet applications
http://www.bom.gov.au/fwo/IDQ60701/IDQ60701.94387.axf

JavaScript Object Notation format (JSON) in row-major order
http://www.bom.gov.au/fwo/IDQ60701/IDQ60701.94387.json

Data quality

Most of these data are generated automatically and are frequently updated. Quality checks on data are not normally performed. It is possible for incorrect values to appear. Refer to information at About Latest Weather Observations and please check the disclaimer before using these data.